sensor_id;sensor_type;location;lat;lon;timestamp;pressure;altitude;pressure_sealevel;temperature;humidity
46955;BME280;32708;51.212;6.788;2024-02-23T00:01:53;98294.38;;;9.05;100.00
46955;BME280;32708;51.212;6.788;2024-02-23T00:04:19;98305.31;;;8.79;100.00
46955;BME280;32708;51.212;6.788;2024-02-23T00:06:45;98326.50;;;8.43;100.00
46955;BME280;32708;51.212;6.788;2024-02-23T00:09:12;98334.19;;;8.38;100.00
46955;BME280;32708;51.212;6.788;2024-02-23T00:11:41;98349.63;;;8.14;100.00
46955;BME280;32708;51.212;6.788;2024-02-23T00:14:15;98347.78;;;8.18;100.00
46955;BME280;32708;51.212;6.788;2024-02-23T00:16:44;98343.91;;;8.19;100.00
46955;BME280;32708;51.212;6.788;2024-02-23T00:19:10;98355.94;;;8.18;100.00
46955;BME280;32708;51.212;6.788;2024-02-23T00:21:37;98365.88;;;8.30;100.00
46955;BME280;32708;51.212;6.788;2024-02-23T00:24:08;98385.47;;;8.20;100.00
46955;BME280;32708;51.212;6.788;2024-02-23T00:26:34;98375.50;;;7.85;100.00
46955;BME280;32708;51.212;6.788;2024-02-23T00:29:02;98379.50;;;7.91;100.00
46955;BME280;32708;51.212;6.788;2024-02-23T00:31:28;98391.03;;;7.65;100.00
46955;BME280;32708;51.212;6.788;2024-02-23T00:33:54;98382.34;;;7.98;100.00
46955;BME280;32708;51.212;6.788;2024-02-23T00:36:20;98385.84;;;7.99;100.00
46955;BME280;32708;51.212;6.788;2024-02-23T00:38:47;98390.38;;;7.91;100.00
46955;BME280;32708;51.212;6.788;2024-02-23T00:41:13;98396.91;;;8.29;100.00
46955;BME280;32708;51.212;6.788;2024-02-23T00:43:40;98399.19;;;8.27;100.00
46955;BME280;32708;51.212;6.788;2024-02-23T00:46:09;98400.34;;;8.26;100.00
46955;BME280;32708;51.212;6.788;2024-02-23T00:48:36;98406.50;;;8.23;100.00
46955;BME280;32708;51.212;6.788;2024-02-23T00:51:03;98408.91;;;8.28;100.00
46955;BME280;32708;51.212;6.788;2024-02-23T00:53:31;98405.06;;;8.48;100.00
46955;BME280;32708;51.212;6.788;2024-02-23T00:55:58;98418.72;;;8.33;100.00
46955;BME280;32708;51.212;6.788;2024-02-23T00:58:25;98425.53;;;8.42;100.00
46955;BME280;32708;51.212;6.788;2024-02-23T01:00:51;98424.44;;;8.47;100.00
46955;BME280;32708;51.212;6.788;2024-02-23T01:03:17;98421.13;;;8.57;100.00
46955;BME280;32708;51.212;6.788;2024-02-23T01:05:43;98423.56;;;8.62;100.00
46955;BME280;32708;51.212;6.788;2024-02-23T01:08:10;98428.44;;;8.53;100.00
46955;BME280;32708;51.212;6.788;2024-02-23T01:10:36;98443.72;;;8.19;100.00
46955;BME280;32708;51.212;6.788;2024-02-23T01:13:02;98443.34;;;8.82;100.00
46955;BME280;32708;51.212;6.788;2024-02-23T01:15:28;98439.84;;;8.39;100.00
46955;BME280;32708;51.212;6.788;2024-02-23T01:17:54;98451.88;;;8.19;100.00
46955;BME280;32708;51.212;6.788;2024-02-23T01:20:22;98454.03;;;8.29;100.00
46955;BME280;32708;51.212;6.788;2024-02-23T01:22:48;98448.94;;;8.70;100.00
46955;BME280;32708;51.212;6.788;2024-02-23T01:25:14;98446.94;;;8.24;100.00
46955;BME280;32708;51.212;6.788;2024-02-23T01:27:42;98455.78;;;8.21;100.00
46955;BME280;32708;51.212;6.788;2024-02-23T01:30:08;98464.25;;;8.16;100.00
46955;BME280;32708;51.212;6.788;2024-02-23T01:32:34;98466.25;;;8.19;100.00
46955;BME280;32708;51.212;6.788;2024-02-23T01:35:04;98460.66;;;8.32;100.00
46955;BME280;32708;51.212;6.788;2024-02-23T01:37:30;98468.31;;;8.07;100.00
46955;BME280;32708;51.212;6.788;2024-02-23T01:39:57;98458.44;;;7.98;100.00
46955;BME280;32708;51.212;6.788;2024-02-23T01:42:25;98472.31;;;8.32;100.00
46955;BME280;32708;51.212;6.788;2024-02-23T01:44:52;98471.63;;;8.35;100.00
46955;BME280;32708;51.212;6.788;2024-02-23T01:47:19;98472.75;;;8.15;100.00
46955;BME280;32708;51.212;6.788;2024-02-23T01:49:47;98478.03;;;8.27;100.00
46955;BME280;32708;51.212;6.788;2024-02-23T01:52:14;98476.59;;;8.33;100.00
46955;BME280;32708;51.212;6.788;2024-02-23T01:54:41;98476.03;;;8.24;100.00
46955;BME280;32708;51.212;6.788;2024-02-23T01:57:09;98481.16;;;8.45;100.00
46955;BME280;32708;51.212;6.788;2024-02-23T01:59:40;98488.13;;;8.26;100.00
46955;BME280;32708;51.212;6.788;2024-02-23T02:02:06;98486.47;;;8.61;100.00
46955;BME280;32708;51.212;6.788;2024-02-23T02:04:33;98487.97;;;8.19;100.00
46955;BME280;32708;51.212;6.788;2024-02-23T02:07:00;98503.66;;;8.26;100.00
46955;BME280;32708;51.212;6.788;2024-02-23T02:09:28;98510.31;;;7.74;100.00
46955;BME280;32708;51.212;6.788;2024-02-23T02:11:54;98510.31;;;8.48;100.00
46955;BME280;32708;51.212;6.788;2024-02-23T02:14:20;98491.78;;;8.15;100.00
46955;BME280;32708;51.212;6.788;2024-02-23T02:16:46;98494.44;;;8.31;100.00
46955;BME280;32708;51.212;6.788;2024-02-23T02:19:15;98500.44;;;8.01;100.00
46955;BME280;32708;51.212;6.788;2024-02-23T02:21:41;98514.59;;;8.10;100.00
46955;BME280;32708;51.212;6.788;2024-02-23T02:24:07;98509.38;;;7.66;100.00
46955;BME280;32708;51.212;6.788;2024-02-23T02:26:36;98512.66;;;8.11;100.00
46955;BME280;32708;51.212;6.788;2024-02-23T02:29:02;98499.34;;;8.06;100.00
46955;BME280;32708;51.212;6.788;2024-02-23T02:31:29;98514.31;;;8.15;100.00
46955;BME280;32708;51.212;6.788;2024-02-23T02:33:56;98510.09;;;8.18;100.00
46955;BME280;32708;51.212;6.788;2024-02-23T02:36:22;98506.69;;;7.86;100.00
46955;BME280;32708;51.212;6.788;2024-02-23T02:38:48;98521.28;;;7.97;100.00
46955;BME280;32708;51.212;6.788;2024-02-23T02:41:18;98521.81;;;7.67;100.00
46955;BME280;32708;51.212;6.788;2024-02-23T02:43:45;98520.25;;;8.02;100.00
46955;BME280;32708;51.212;6.788;2024-02-23T02:46:11;98534.28;;;7.53;100.00
46955;BME280;32708;51.212;6.788;2024-02-23T02:48:37;98519.31;;;8.13;100.00
46955;BME280;32708;51.212;6.788;2024-02-23T02:51:03;98527.41;;;7.75;100.00
46955;BME280;32708;51.212;6.788;2024-02-23T02:53:29;98522.81;;;7.94;100.00
46955;BME280;32708;51.212;6.788;2024-02-23T02:55:56;98521.72;;;7.99;100.00
46955;BME280;32708;51.212;6.788;2024-02-23T02:58:22;98515.75;;;7.74;100.00
46955;BME280;32708;51.212;6.788;2024-02-23T03:00:48;98531.72;;;7.60;100.00
46955;BME280;32708;51.212;6.788;2024-02-23T03:03:14;98535.91;;;8.27;100.00
46955;BME280;32708;51.212;6.788;2024-02-23T03:05:40;98531.72;;;8.30;100.00
46955;BME280;32708;51.212;6.788;2024-02-23T03:08:06;98534.25;;;8.04;100.00
46955;BME280;32708;51.212;6.788;2024-02-23T03:10:33;98544.16;;;8.31;100.00
46955;BME280;32708;51.212;6.788;2024-02-23T03:12:59;98532.09;;;8.13;100.00
46955;BME280;32708;51.212;6.788;2024-02-23T03:15:25;98539.09;;;7.94;100.00
46955;BME280;32708;51.212;6.788;2024-02-23T03:17:51;98530.19;;;8.13;100.00
46955;BME280;32708;51.212;6.788;2024-02-23T03:20:17;98542.72;;;8.18;100.00
46955;BME280;32708;51.212;6.788;2024-02-23T03:22:43;98529.72;;;7.92;100.00
46955;BME280;32708;51.212;6.788;2024-02-23T03:25:09;98551.44;;;7.72;100.00
46955;BME280;32708;51.212;6.788;2024-02-23T03:27:38;98551.25;;;7.50;100.00
46955;BME280;32708;51.212;6.788;2024-02-23T03:30:06;98557.47;;;7.66;100.00
46955;BME280;32708;51.212;6.788;2024-02-23T03:32:34;98562.78;;;7.94;100.00
46955;BME280;32708;51.212;6.788;2024-02-23T03:35:06;98574.91;;;7.81;100.00
46955;BME280;32708;51.212;6.788;2024-02-23T03:37:34;98560.22;;;7.50;100.00
46955;BME280;32708;51.212;6.788;2024-02-23T03:40:00;98543.28;;;8.27;100.00
46955;BME280;32708;51.212;6.788;2024-02-23T03:42:26;98557.88;;;7.84;100.00
46955;BME280;32708;51.212;6.788;2024-02-23T03:44:53;98555.28;;;8.07;100.00
46955;BME280;32708;51.212;6.788;2024-02-23T03:47:20;98544.38;;;8.42;100.00
46955;BME280;32708;51.212;6.788;2024-02-23T03:49:46;98543.28;;;8.27;100.00
46955;BME280;32708;51.212;6.788;2024-02-23T03:52:12;98545.69;;;8.13;100.00
46955;BME280;32708;51.212;6.788;2024-02-23T03:54:39;98554.81;;;7.85;100.00
46955;BME280;32708;51.212;6.788;2024-02-23T03:57:05;98556.66;;;7.81;100.00
46955;BME280;32708;51.212;6.788;2024-02-23T03:59:31;98558.50;;;8.12;100.00
46955;BME280;32708;51.212;6.788;2024-02-23T04:01:57;98560.28;;;8.05;100.00
46955;BME280;32708;51.212;6.788;2024-02-23T04:04:23;98566.78;;;8.00;100.00
46955;BME280;32708;51.212;6.788;2024-02-23T04:06:49;98571.25;;;7.92;100.00
46955;BME280;32708;51.212;6.788;2024-02-23T04:09:16;98576.38;;;8.13;100.00
46955;BME280;32708;51.212;6.788;2024-02-23T04:11:42;98569.00;;;8.30;100.00
46955;BME280;32708;51.212;6.788;2024-02-23T04:14:08;98558.41;;;7.89;100.00
46955;BME280;32708;51.212;6.788;2024-02-23T04:16:34;98562.06;;;7.97;100.00
46955;BME280;32708;51.212;6.788;2024-02-23T04:19:01;98556.81;;;7.88;100.00
46955;BME280;32708;51.212;6.788;2024-02-23T04:21:27;98559.28;;;8.13;100.00
46955;BME280;32708;51.212;6.788;2024-02-23T04:23:53;98560.31;;;8.24;100.00
46955;BME280;32708;51.212;6.788;2024-02-23T04:26:19;98553.09;;;8.70;100.00
46955;BME280;32708;51.212;6.788;2024-02-23T04:28:45;98563.78;;;8.40;100.00
46955;BME280;32708;51.212;6.788;2024-02-23T04:31:11;98566.25;;;8.10;100.00
46955;BME280;32708;51.212;6.788;2024-02-23T04:33:38;98568.53;;;8.43;100.00
46955;BME280;32708;51.212;6.788;2024-02-23T04:36:05;98578.69;;;8.66;100.00
46955;BME280;32708;51.212;6.788;2024-02-23T04:38:33;98578.75;;;8.69;100.00
46955;BME280;32708;51.212;6.788;2024-02-23T04:41:03;98562.97;;;8.98;100.00
46955;BME280;32708;51.212;6.788;2024-02-23T04:43:33;98578.84;;;8.73;100.00
46955;BME280;32708;51.212;6.788;2024-02-23T04:45:59;98589.13;;;8.44;100.00
46955;BME280;32708;51.212;6.788;2024-02-23T04:48:25;98590.75;;;8.49;100.00
46955;BME280;32708;51.212;6.788;2024-02-23T04:50:52;98593.44;;;8.45;100.00
46955;BME280;32708;51.212;6.788;2024-02-23T04:53:18;98588.19;;;8.56;100.00
46955;BME280;32708;51.212;6.788;2024-02-23T04:55:45;98596.66;;;8.51;100.00
46955;BME280;32708;51.212;6.788;2024-02-23T04:58:11;98595.38;;;8.45;100.00
46955;BME280;32708;51.212;6.788;2024-02-23T05:00:38;98597.66;;;8.27;100.00
46955;BME280;32708;51.212;6.788;2024-02-23T05:03:05;98599.41;;;8.35;100.00
46955;BME280;32708;51.212;6.788;2024-02-23T05:05:32;98596.00;;;8.38;100.00
46955;BME280;32708;51.212;6.788;2024-02-23T05:07:58;98594.00;;;8.54;100.00
46955;BME280;32708;51.212;6.788;2024-02-23T05:10:25;98594.13;;;8.42;100.00
46955;BME280;32708;51.212;6.788;2024-02-23T05:12:51;98595.22;;;8.76;100.00
46955;BME280;32708;51.212;6.788;2024-02-23T05:15:17;98595.56;;;8.55;100.00
46955;BME280;32708;51.212;6.788;2024-02-23T05:17:44;98600.88;;;8.68;100.00
46955;BME280;32708;51.212;6.788;2024-02-23T05:20:11;98598.09;;;9.06;100.00
46955;BME280;32708;51.212;6.788;2024-02-23T05:22:41;98591.94;;;8.87;100.00
46955;BME280;32708;51.212;6.788;2024-02-23T05:25:08;98594.72;;;8.71;100.00
46955;BME280;32708;51.212;6.788;2024-02-23T05:27:35;98598.50;;;8.86;100.00
46955;BME280;32708;51.212;6.788;2024-02-23T05:30:01;98604.22;;;8.61;100.00
46955;BME280;32708;51.212;6.788;2024-02-23T05:32:28;98594.69;;;9.09;100.00
46955;BME280;32708;51.212;6.788;2024-02-23T05:34:54;98593.03;;;9.28;100.00
46955;BME280;32708;51.212;6.788;2024-02-23T05:37:25;98596.72;;;8.93;100.00
46955;BME280;32708;51.212;6.788;2024-02-23T05:39:52;98595.28;;;8.80;100.00
46955;BME280;32708;51.212;6.788;2024-02-23T05:42:19;98592.28;;;8.66;100.00
46955;BME280;32708;51.212;6.788;2024-02-23T05:44:46;98596.88;;;9.23;100.00
46955;BME280;32708;51.212;6.788;2024-02-23T05:47:14;98595.34;;;9.03;100.00
46955;BME280;32708;51.212;6.788;2024-02-23T05:49:41;98601.56;;;9.03;100.00
46955;BME280;32708;51.212;6.788;2024-02-23T05:52:07;98604.13;;;9.16;100.00
46955;BME280;32708;51.212;6.788;2024-02-23T05:54:33;98595.56;;;9.36;100.00
46955;BME280;32708;51.212;6.788;2024-02-23T05:57:00;98593.03;;;9.05;100.00
46955;BME280;32708;51.212;6.788;2024-02-23T05:59:26;98588.09;;;9.10;100.00
46955;BME280;32708;51.212;6.788;2024-02-23T06:01:53;98591.72;;;8.76;100.00
46955;BME280;32708;51.212;6.788;2024-02-23T06:04:23;98596.91;;;8.85;100.00
46955;BME280;32708;51.212;6.788;2024-02-23T06:06:49;98578.19;;;9.45;100.00
46955;BME280;32708;51.212;6.788;2024-02-23T06:09:16;98593.25;;;9.16;100.00
46955;BME280;32708;51.212;6.788;2024-02-23T06:11:42;98583.31;;;9.27;100.00
46955;BME280;32708;51.212;6.788;2024-02-23T06:14:08;98573.53;;;9.22;100.00
46955;BME280;32708;51.212;6.788;2024-02-23T06:16:34;98568.44;;;9.44;100.00
46955;BME280;32708;51.212;6.788;2024-02-23T06:19:00;98580.91;;;9.22;100.00
46955;BME280;32708;51.212;6.788;2024-02-23T06:21:27;98583.38;;;9.53;100.00
46955;BME280;32708;51.212;6.788;2024-02-23T06:23:53;98584.41;;;8.80;100.00
46955;BME280;32708;51.212;6.788;2024-02-23T06:26:19;98577.81;;;9.46;100.00
46955;BME280;32708;51.212;6.788;2024-02-23T06:28:45;98576.97;;;9.65;100.00
46955;BME280;32708;51.212;6.788;2024-02-23T06:31:12;98572.88;;;9.29;100.00
46955;BME280;32708;51.212;6.788;2024-02-23T06:33:38;98582.34;;;9.16;100.00
46955;BME280;32708;51.212;6.788;2024-02-23T06:36:05;98582.41;;;9.19;100.00
46955;BME280;32708;51.212;6.788;2024-02-23T06:38:31;98582.56;;;9.07;100.00
46955;BME280;32708;51.212;6.788;2024-02-23T06:40:57;98594.13;;;9.00;100.00
46955;BME280;32708;51.212;6.788;2024-02-23T06:43:23;98591.13;;;9.51;100.00
46955;BME280;32708;51.212;6.788;2024-02-23T06:45:51;98578.09;;;9.41;100.00
46955;BME280;32708;51.212;6.788;2024-02-23T06:48:17;98589.25;;;8.90;100.00
46955;BME280;32708;51.212;6.788;2024-02-23T06:50:43;98585.44;;;9.37;100.00
46955;BME280;32708;51.212;6.788;2024-02-23T06:53:10;98575.75;;;9.40;100.00
46955;BME280;32708;51.212;6.788;2024-02-23T06:55:36;98575.22;;;8.88;100.00
46955;BME280;32708;51.212;6.788;2024-02-23T06:58:02;98572.63;;;9.15;100.00
46955;BME280;32708;51.212;6.788;2024-02-23T07:00:30;98579.75;;;9.23;100.00
46955;BME280;32708;51.212;6.788;2024-02-23T07:02:57;98565.38;;;9.72;100.00
46955;BME280;32708;51.212;6.788;2024-02-23T07:05:25;98577.81;;;9.23;100.00
46955;BME280;32708;51.212;6.788;2024-02-23T07:07:51;98565.50;;;9.79;100.00
46955;BME280;32708;51.212;6.788;2024-02-23T07:10:17;98559.19;;;9.75;100.00
46955;BME280;32708;51.212;6.788;2024-02-23T07:12:44;98553.31;;;10.26;100.00
46955;BME280;32708;51.212;6.788;2024-02-23T07:15:10;98557.84;;;10.18;100.00
46955;BME280;32708;51.212;6.788;2024-02-23T07:17:36;98568.78;;;9.65;100.00
46955;BME280;32708;51.212;6.788;2024-02-23T07:20:03;98557.28;;;10.62;100.00
46955;BME280;32708;51.212;6.788;2024-02-23T07:22:34;98550.19;;;11.32;100.00
46955;BME280;32708;51.212;6.788;2024-02-23T07:25:00;98547.41;;;11.28;100.00
46955;BME280;32708;51.212;6.788;2024-02-23T07:27:30;98565.41;;;11.33;98.16
46955;BME280;32708;51.212;6.788;2024-02-23T07:29:57;98586.16;;;9.34;100.00
46955;BME280;32708;51.212;6.788;2024-02-23T07:32:23;98588.72;;;9.46;100.00
46955;BME280;32708;51.212;6.788;2024-02-23T07:34:50;98570.44;;;10.90;100.00
46955;BME280;32708;51.212;6.788;2024-02-23T07:37:16;98578.06;;;9.87;100.00
46955;BME280;32708;51.212;6.788;2024-02-23T07:39:42;98582.75;;;9.63;100.00
46955;BME280;32708;51.212;6.788;2024-02-23T07:42:08;98582.88;;;9.48;100.00
46955;BME280;32708;51.212;6.788;2024-02-23T07:44:36;98574.44;;;11.84;100.00
46955;BME280;32708;51.212;6.788;2024-02-23T07:47:03;98557.28;;;12.60;92.93
46955;BME280;32708;51.212;6.788;2024-02-23T07:49:30;98558.53;;;11.49;95.10
46955;BME280;32708;51.212;6.788;2024-02-23T07:51:56;98565.72;;;12.23;90.12
46955;BME280;32708;51.212;6.788;2024-02-23T07:54:22;98572.63;;;12.06;89.16
46955;BME280;32708;51.212;6.788;2024-02-23T07:56:49;98578.22;;;12.24;92.72
46955;BME280;32708;51.212;6.788;2024-02-23T07:59:15;98577.84;;;13.63;82.68
46955;BME280;32708;51.212;6.788;2024-02-23T08:01:41;98585.56;;;12.97;88.22
46955;BME280;32708;51.212;6.788;2024-02-23T08:04:07;98590.13;;;11.47;98.33
46955;BME280;32708;51.212;6.788;2024-02-23T08:06:33;98599.38;;;11.32;97.97
46955;BME280;32708;51.212;6.788;2024-02-23T08:08:59;98599.25;;;11.21;100.00
46955;BME280;32708;51.212;6.788;2024-02-23T08:11:26;98601.25;;;10.87;100.00
46955;BME280;32708;51.212;6.788;2024-02-23T08:13:52;98598.59;;;10.30;100.00
46955;BME280;32708;51.212;6.788;2024-02-23T08:16:18;98602.56;;;10.66;100.00
46955;BME280;32708;51.212;6.788;2024-02-23T08:18:44;98596.44;;;11.54;97.17
46955;BME280;32708;51.212;6.788;2024-02-23T08:21:11;98599.97;;;10.47;100.00
46955;BME280;32708;51.212;6.788;2024-02-23T08:23:37;98604.06;;;10.64;100.00
46955;BME280;32708;51.212;6.788;2024-02-23T08:26:03;98592.91;;;10.76;100.00
46955;BME280;32708;51.212;6.788;2024-02-23T08:28:29;98596.47;;;10.50;100.00
46955;BME280;32708;51.212;6.788;2024-02-23T08:30:55;98606.94;;;9.91;100.00
46955;BME280;32708;51.212;6.788;2024-02-23T08:33:21;98600.69;;;9.91;100.00
46955;BME280;32708;51.212;6.788;2024-02-23T08:35:48;98608.00;;;9.60;100.00
46955;BME280;32708;51.212;6.788;2024-02-23T08:38:14;98609.88;;;9.56;100.00
46955;BME280;32708;51.212;6.788;2024-02-23T08:40:40;98618.59;;;9.88;100.00
46955;BME280;32708;51.212;6.788;2024-02-23T08:43:07;98609.94;;;10.09;100.00
46955;BME280;32708;51.212;6.788;2024-02-23T08:45:34;98618.25;;;9.67;100.00
46955;BME280;32708;51.212;6.788;2024-02-23T08:48:00;98621.69;;;9.87;100.00
46955;BME280;32708;51.212;6.788;2024-02-23T08:50:26;98614.72;;;10.16;100.00
46955;BME280;32708;51.212;6.788;2024-02-23T08:52:52;98622.41;;;9.38;100.00
46955;BME280;32708;51.212;6.788;2024-02-23T08:55:18;98614.00;;;10.49;100.00
46955;BME280;32708;51.212;6.788;2024-02-23T08:57:44;98614.88;;;10.27;100.00
46955;BME280;32708;51.212;6.788;2024-02-23T09:00:11;98611.19;;;10.42;100.00
46955;BME280;32708;51.212;6.788;2024-02-23T09:02:38;98600.28;;;10.42;100.00
46955;BME280;32708;51.212;6.788;2024-02-23T09:05:05;98606.94;;;9.91;100.00
46955;BME280;32708;51.212;6.788;2024-02-23T09:07:31;98616.34;;;9.94;100.00
46955;BME280;32708;51.212;6.788;2024-02-23T09:09:57;98605.66;;;10.65;100.00
46955;BME280;32708;51.212;6.788;2024-02-23T09:12:23;98608.66;;;11.23;99.89
46955;BME280;32708;51.212;6.788;2024-02-23T09:14:50;98612.00;;;10.72;100.00
46955;BME280;32708;51.212;6.788;2024-02-23T09:17:16;98620.53;;;10.71;100.00
46955;BME280;32708;51.212;6.788;2024-02-23T09:19:42;98616.44;;;10.54;100.00
46955;BME280;32708;51.212;6.788;2024-02-23T09:22:08;98611.91;;;10.65;100.00
46955;BME280;32708;51.212;6.788;2024-02-23T09:24:34;98618.81;;;10.03;100.00
46955;BME280;32708;51.212;6.788;2024-02-23T09:27:01;98622.00;;;10.35;100.00
46955;BME280;32708;51.212;6.788;2024-02-23T09:29:27;98620.34;;;10.57;100.00
46955;BME280;32708;51.212;6.788;2024-02-23T09:31:53;98625.25;;;11.45;98.69
46955;BME280;32708;51.212;6.788;2024-02-23T09:34:19;98621.41;;;10.79;98.87
46955;BME280;32708;51.212;6.788;2024-02-23T09:36:46;98629.06;;;10.36;100.00
46955;BME280;32708;51.212;6.788;2024-02-23T09:39:12;98626.59;;;10.57;100.00
46955;BME280;32708;51.212;6.788;2024-02-23T09:41:39;98619.34;;;10.68;99.75
46955;BME280;32708;51.212;6.788;2024-02-23T09:44:06;98620.59;;;10.74;96.10
46955;BME280;32708;51.212;6.788;2024-02-23T09:46:37;98619.66;;;10.63;97.93
46955;BME280;32708;51.212;6.788;2024-02-23T09:49:05;98633.53;;;10.81;96.08
46955;BME280;32708;51.212;6.788;2024-02-23T09:51:34;98629.38;;;10.31;99.71
46955;BME280;32708;51.212;6.788;2024-02-23T09:54:02;98627.00;;;10.89;98.64
46955;BME280;32708;51.212;6.788;2024-02-23T09:56:28;98635.72;;;10.68;99.76
46955;BME280;32708;51.212;6.788;2024-02-23T09:59:02;98624.75;;;10.98;97.84
46955;BME280;32708;51.212;6.788;2024-02-23T10:01:32;98627.31;;;10.84;98.35
46955;BME280;32708;51.212;6.788;2024-02-23T10:04:01;98626.16;;;10.85;98.41
46955;BME280;32708;51.212;6.788;2024-02-23T10:06:30;98626.50;;;10.80;98.44
46955;BME280;32708;51.212;6.788;2024-02-23T10:08:56;98620.53;;;10.71;98.50
46955;BME280;32708;51.212;6.788;2024-02-23T10:11:24;98621.06;;;10.84;98.98
46955;BME280;32708;51.212;6.788;2024-02-23T10:13:51;98635.91;;;11.20;95.62
46955;BME280;32708;51.212;6.788;2024-02-23T10:16:19;98631.09;;;11.06;92.40
46955;BME280;32708;51.212;6.788;2024-02-23T10:18:49;98629.16;;;11.44;94.90
46955;BME280;32708;51.212;6.788;2024-02-23T10:21:16;98620.19;;;11.47;91.09
46955;BME280;32708;51.212;6.788;2024-02-23T10:23:45;98621.34;;;11.46;92.19
46955;BME280;32708;51.212;6.788;2024-02-23T10:26:16;98629.88;;;11.37;92.71
46955;BME280;32708;51.212;6.788;2024-02-23T10:28:46;98623.03;;;11.20;93.54
46955;BME280;32708;51.212;6.788;2024-02-23T10:31:17;98631.81;;;10.69;95.76
46955;BME280;32708;51.212;6.788;2024-02-23T10:33:50;98628.00;;;11.08;95.78
46955;BME280;32708;51.212;6.788;2024-02-23T10:36:18;98623.88;;;10.57;97.44
46955;BME280;32708;51.212;6.788;2024-02-23T10:38:46;98634.41;;;11.22;93.88
46955;BME280;32708;51.212;6.788;2024-02-23T10:41:14;98643.72;;;11.58;92.75
46955;BME280;32708;51.212;6.788;2024-02-23T10:43:46;98626.94;;;11.19;94.36
46955;BME280;32708;51.212;6.788;2024-02-23T10:46:15;98636.97;;;10.74;95.87
46955;BME280;32708;51.212;6.788;2024-02-23T10:48:43;98640.66;;;10.89;94.70
46955;BME280;32708;51.212;6.788;2024-02-23T10:51:13;98646.06;;;11.19;93.10
46955;BME280;32708;51.212;6.788;2024-02-23T10:53:40;98653.19;;;10.94;95.17
46955;BME280;32708;51.212;6.788;2024-02-23T10:56:07;98642.00;;;11.06;93.97
46955;BME280;32708;51.212;6.788;2024-02-23T10:58:34;98642.38;;;11.38;89.50
46955;BME280;32708;51.212;6.788;2024-02-23T11:01:07;98648.78;;;10.86;95.33
46955;BME280;32708;51.212;6.788;2024-02-23T11:03:38;98645.66;;;10.84;94.83
46955;BME280;32708;51.212;6.788;2024-02-23T11:06:07;98645.94;;;10.75;95.73
46955;BME280;32708;51.212;6.788;2024-02-23T11:08:34;98643.47;;;11.30;92.87
46955;BME280;32708;51.212;6.788;2024-02-23T11:11:10;98643.41;;;11.67;91.35
46955;BME280;32708;51.212;6.788;2024-02-23T11:13:39;98645.13;;;11.05;94.73
46955;BME280;32708;51.212;6.788;2024-02-23T11:16:08;98646.66;;;11.02;94.07
46955;BME280;32708;51.212;6.788;2024-02-23T11:18:39;98647.59;;;11.17;94.16
46955;BME280;32708;51.212;6.788;2024-02-23T11:21:10;98642.31;;;11.75;90.96
46955;BME280;32708;51.212;6.788;2024-02-23T11:23:49;98636.78;;;11.27;92.99
46955;BME280;32708;51.212;6.788;2024-02-23T11:26:17;98641.59;;;11.41;92.23
46955;BME280;32708;51.212;6.788;2024-02-23T11:28:52;98632.50;;;11.71;90.67
46955;BME280;32708;51.212;6.788;2024-02-23T11:31:22;98635.47;;;10.81;95.53
46955;BME280;32708;51.212;6.788;2024-02-23T11:33:56;98624.94;;;11.94;90.96
46955;BME280;32708;51.212;6.788;2024-02-23T11:38:53;98643.47;;;11.34;94.12
46955;BME280;32708;51.212;6.788;2024-02-23T11:41:24;98644.91;;;11.20;96.53
46955;BME280;32708;51.212;6.788;2024-02-23T11:43:53;98637.94;;;11.26;94.34
46955;BME280;32708;51.212;6.788;2024-02-23T11:46:20;98641.50;;;11.30;96.22
46955;BME280;32708;51.212;6.788;2024-02-23T11:48:47;98641.66;;;11.48;94.98
46955;BME280;32708;51.212;6.788;2024-02-23T11:51:21;98632.41;;;12.01;93.10
46955;BME280;32708;51.212;6.788;2024-02-23T11:53:48;98643.28;;;11.94;92.57
46955;BME280;32708;51.212;6.788;2024-02-23T11:56:14;98648.38;;;11.95;92.98
46955;BME280;32708;51.212;6.788;2024-02-23T11:58:42;98640.34;;;11.72;93.89
46955;BME280;32708;51.212;6.788;2024-02-23T12:01:09;98648.75;;;11.53;96.28
46955;BME280;32708;51.212;6.788;2024-02-23T12:03:35;98641.66;;;11.45;95.86
46955;BME280;32708;51.212;6.788;2024-02-23T12:06:02;98642.00;;;11.06;97.72
46955;BME280;32708;51.212;6.788;2024-02-23T12:08:32;98646.88;;;11.61;98.63
46955;BME280;32708;51.212;6.788;2024-02-23T12:11:08;98641.09;;;11.69;97.51
46955;BME280;32708;51.212;6.788;2024-02-23T12:13:36;98646.63;;;11.36;96.93
46955;BME280;32708;51.212;6.788;2024-02-23T12:16:03;98644.69;;;11.36;97.72
46955;BME280;32708;51.212;6.788;2024-02-23T12:18:29;98649.16;;;11.55;95.14
46955;BME280;32708;51.212;6.788;2024-02-23T12:21:03;98644.78;;;11.47;96.43
46955;BME280;32708;51.212;6.788;2024-02-23T12:23:44;98641.84;;;12.14;93.86
46955;BME280;32708;51.212;6.788;2024-02-23T12:26:18;98633.25;;;11.27;94.36
46955;BME280;32708;51.212;6.788;2024-02-23T12:28:45;98641.66;;;11.45;94.12
46955;BME280;32708;51.212;6.788;2024-02-23T12:31:14;98630.47;;;11.61;93.08
46955;BME280;32708;51.212;6.788;2024-02-23T12:33:41;98649.47;;;11.46;92.60
46955;BME280;32708;51.212;6.788;2024-02-23T12:36:10;98639.66;;;11.05;92.81
46955;BME280;32708;51.212;6.788;2024-02-23T12:38:36;98642.38;;;11.01;95.17
46955;BME280;32708;51.212;6.788;2024-02-23T12:41:04;98645.25;;;11.15;95.00
46955;BME280;32708;51.212;6.788;2024-02-23T12:43:30;98664.44;;;11.22;94.72
46955;BME280;32708;51.212;6.788;2024-02-23T12:45:57;98653.44;;;11.52;93.11
46955;BME280;32708;51.212;6.788;2024-02-23T12:48:24;98646.53;;;11.28;94.11
46955;BME280;32708;51.212;6.788;2024-02-23T12:50:52;98645.69;;;11.62;93.83
46955;BME280;32708;51.212;6.788;2024-02-23T12:53:41;98651.94;;;11.58;91.55
46955;BME280;32708;51.212;6.788;2024-02-23T12:56:13;98645.59;;;11.92;94.52
46955;BME280;32708;51.212;6.788;2024-02-23T12:58:42;98643.19;;;11.83;94.75
46955;BME280;32708;51.212;6.788;2024-02-23T13:01:09;98643.16;;;12.34;91.50
46955;BME280;32708;51.212;6.788;2024-02-23T13:03:38;98636.59;;;12.50;91.37